sensor_id;sensor_type;location;lat;lon;timestamp;P1;durP1;ratioP1;P2;durP2;ratioP2
26530;SDS011;14201;43.188;24.160;2023-04-24T03:14:54;11.27;;;8.23;;
26530;SDS011;14201;43.188;24.160;2023-04-24T03:17:19;10.10;;;8.25;;
26530;SDS011;14201;43.188;24.160;2023-04-24T03:19:45;12.23;;;8.40;;
26530;SDS011;14201;43.188;24.160;2023-04-24T03:22:11;11.23;;;7.72;;
26530;SDS011;14201;43.188;24.160;2023-04-24T03:24:37;11.75;;;7.70;;
26530;SDS011;14201;43.188;24.160;2023-04-24T03:27:02;9.57;;;6.82;;
26530;SDS011;14201;43.188;24.160;2023-04-24T10:26:01;4.80;;;3.42;;
26530;SDS011;14201;43.188;24.160;2023-04-24T10:28:26;6.53;;;3.05;;
26530;SDS011;14201;43.188;24.160;2023-04-24T10:30:54;6.80;;;3.40;;
26530;SDS011;14201;43.188;24.160;2023-04-24T10:33:21;6.10;;;3.38;;
26530;SDS011;14201;43.188;24.160;2023-04-24T10:35:48;4.68;;;3.17;;
26530;SDS011;14201;43.188;24.160;2023-04-24T10:38:18;5.13;;;2.85;;
26530;SDS011;14201;43.188;24.160;2023-04-24T10:40:56;5.35;;;3.15;;
26530;SDS011;14201;43.188;24.160;2023-04-24T10:43:33;5.60;;;3.22;;
26530;SDS011;14201;43.188;24.160;2023-04-24T10:46:02;4.57;;;3.00;;
26530;SDS011;14201;43.188;24.160;2023-04-24T10:48:30;5.18;;;3.15;;
26530;SDS011;14201;43.188;24.160;2023-04-24T10:50:57;4.53;;;2.75;;
26530;SDS011;14201;43.188;24.160;2023-04-24T10:53:24;4.68;;;2.75;;
26530;SDS011;14201;43.188;24.160;2023-04-24T10:56:03;4.63;;;2.67;;
26530;SDS011;14201;43.188;24.160;2023-04-24T11:01:26;4.55;;;3.05;;
26530;SDS011;14201;43.188;24.160;2023-04-24T11:03:57;5.70;;;2.78;;
26530;SDS011;14201;43.188;24.160;2023-04-24T11:09:17;3.25;;;2.40;;
26530;SDS011;14201;43.188;24.160;2023-04-24T11:11:46;5.85;;;2.50;;
26530;SDS011;14201;43.188;24.160;2023-04-24T11:14:15;4.63;;;2.20;;
26530;SDS011;14201;43.188;24.160;2023-04-24T11:24:26;4.37;;;2.47;;
26530;SDS011;14201;43.188;24.160;2023-04-24T11:29:39;6.50;;;2.80;;
26530;SDS011;14201;43.188;24.160;2023-04-24T11:37:15;5.85;;;2.50;;
26530;SDS011;14201;43.188;24.160;2023-04-24T11:44:33;6.15;;;2.78;;
26530;SDS011;14201;43.188;24.160;2023-04-24T11:47:00;6.37;;;2.97;;
26530;SDS011;14201;43.188;24.160;2023-04-24T11:49:25;5.32;;;2.85;;
26530;SDS011;14201;43.188;24.160;2023-04-24T11:51:54;5.10;;;2.70;;
26530;SDS011;14201;43.188;24.160;2023-04-24T11:54:20;5.07;;;3.17;;
26530;SDS011;14201;43.188;24.160;2023-04-24T11:56:46;3.67;;;2.88;;
26530;SDS011;14201;43.188;24.160;2023-04-24T11:59:13;4.03;;;2.60;;
26530;SDS011;14201;43.188;24.160;2023-04-24T12:01:42;4.25;;;2.92;;
26530;SDS011;14201;43.188;24.160;2023-04-24T12:04:09;4.38;;;2.95;;
26530;SDS011;14201;43.188;24.160;2023-04-24T12:06:35;5.72;;;2.58;;
26530;SDS011;14201;43.188;24.160;2023-04-24T12:09:00;4.85;;;2.90;;
26530;SDS011;14201;43.188;24.160;2023-04-24T12:11:26;3.67;;;2.70;;
26530;SDS011;14201;43.188;24.160;2023-04-24T12:13:52;5.57;;;2.40;;
26530;SDS011;14201;43.188;24.160;2023-04-24T12:16:17;5.35;;;2.70;;
26530;SDS011;14201;43.188;24.160;2023-04-24T12:18:44;4.60;;;2.63;;
26530;SDS011;14201;43.188;24.160;2023-04-24T12:21:20;4.80;;;2.65;;
26530;SDS011;14201;43.188;24.160;2023-04-24T12:23:47;11.73;;;2.90;;
26530;SDS011;14201;43.188;24.160;2023-04-24T12:26:17;5.60;;;2.72;;
26530;SDS011;14201;43.188;24.160;2023-04-24T12:28:46;4.20;;;2.70;;
26530;SDS011;14201;43.188;24.160;2023-04-24T12:31:14;2.67;;;2.10;;
26530;SDS011;14201;43.188;24.160;2023-04-24T12:33:41;4.97;;;2.80;;
26530;SDS011;14201;43.188;24.160;2023-04-24T12:36:09;8.63;;;2.58;;
26530;SDS011;14201;43.188;24.160;2023-04-24T12:38:37;4.18;;;3.05;;
26530;SDS011;14201;43.188;24.160;2023-04-24T12:41:07;6.50;;;2.73;;
26530;SDS011;14201;43.188;24.160;2023-04-24T12:43:34;5.07;;;2.88;;
26530;SDS011;14201;43.188;24.160;2023-04-24T12:46:01;5.82;;;3.08;;
26530;SDS011;14201;43.188;24.160;2023-04-24T12:48:27;6.70;;;3.05;;
26530;SDS011;14201;43.188;24.160;2023-04-24T12:50:53;4.18;;;2.92;;
26530;SDS011;14201;43.188;24.160;2023-04-24T12:53:20;7.07;;;2.50;;
26530;SDS011;14201;43.188;24.160;2023-04-24T12:55:46;3.95;;;2.53;;
26530;SDS011;14201;43.188;24.160;2023-04-24T12:58:17;6.60;;;2.88;;
26530;SDS011;14201;43.188;24.160;2023-04-24T13:00:46;5.78;;;2.42;;
26530;SDS011;14201;43.188;24.160;2023-04-24T13:03:12;3.55;;;2.33;;
26530;SDS011;14201;43.188;24.160;2023-04-24T13:05:38;4.95;;;2.83;;
26530;SDS011;14201;43.188;24.160;2023-04-24T13:08:04;4.38;;;2.80;;
26530;SDS011;14201;43.188;24.160;2023-04-24T13:10:29;5.50;;;2.90;;
26530;SDS011;14201;43.188;24.160;2023-04-24T13:12:55;8.70;;;2.50;;
26530;SDS011;14201;43.188;24.160;2023-04-24T13:15:21;2.90;;;2.42;;
26530;SDS011;14201;43.188;24.160;2023-04-24T13:17:47;3.72;;;2.30;;
26530;SDS011;14201;43.188;24.160;2023-04-24T13:20:12;9.73;;;2.53;;
26530;SDS011;14201;43.188;24.160;2023-04-24T13:22:38;4.18;;;2.30;;
26530;SDS011;14201;43.188;24.160;2023-04-24T13:25:04;4.15;;;2.35;;
26530;SDS011;14201;43.188;24.160;2023-04-24T13:27:31;7.45;;;2.40;;
26530;SDS011;14201;43.188;24.160;2023-04-24T13:29:56;6.03;;;2.20;;
26530;SDS011;14201;43.188;24.160;2023-04-24T13:32:22;3.58;;;2.28;;
26530;SDS011;14201;43.188;24.160;2023-04-24T13:34:48;4.10;;;2.50;;
26530;SDS011;14201;43.188;24.160;2023-04-24T13:37:13;5.70;;;2.30;;
26530;SDS011;14201;43.188;24.160;2023-04-24T13:39:39;4.15;;;2.80;;
26530;SDS011;14201;43.188;24.160;2023-04-24T13:42:06;4.82;;;2.83;;
26530;SDS011;14201;43.188;24.160;2023-04-24T13:44:31;4.72;;;2.60;;
26530;SDS011;14201;43.188;24.160;2023-04-24T13:46:57;3.30;;;2.50;;
26530;SDS011;14201;43.188;24.160;2023-04-24T13:49:24;5.10;;;2.63;;
26530;SDS011;14201;43.188;24.160;2023-04-24T13:51:50;3.78;;;2.70;;
26530;SDS011;14201;43.188;24.160;2023-04-24T13:54:16;4.70;;;2.40;;
26530;SDS011;14201;43.188;24.160;2023-04-24T13:56:42;8.00;;;2.63;;
26530;SDS011;14201;43.188;24.160;2023-04-24T13:59:08;5.93;;;3.40;;
26530;SDS011;14201;43.188;24.160;2023-04-24T14:01:34;6.13;;;3.15;;
26530;SDS011;14201;43.188;24.160;2023-04-24T14:04:00;5.38;;;2.65;;
26530;SDS011;14201;43.188;24.160;2023-04-24T14:06:25;5.85;;;2.65;;
26530;SDS011;14201;43.188;24.160;2023-04-24T14:08:51;6.35;;;3.00;;
26530;SDS011;14201;43.188;24.160;2023-04-24T14:11:18;7.00;;;3.30;;
26530;SDS011;14201;43.188;24.160;2023-04-24T14:13:44;6.40;;;3.33;;
26530;SDS011;14201;43.188;24.160;2023-04-24T14:16:10;4.78;;;3.25;;
26530;SDS011;14201;43.188;24.160;2023-04-24T14:18:36;8.00;;;3.70;;
26530;SDS011;14201;43.188;24.160;2023-04-24T14:21:03;3.80;;;2.75;;
26530;SDS011;14201;43.188;24.160;2023-04-24T14:23:28;3.30;;;3.00;;
26530;SDS011;14201;43.188;24.160;2023-04-24T14:25:54;4.60;;;3.67;;
26530;SDS011;14201;43.188;24.160;2023-04-24T14:28:20;5.88;;;4.20;;
26530;SDS011;14201;43.188;24.160;2023-04-24T14:30:46;5.90;;;4.55;;
26530;SDS011;14201;43.188;24.160;2023-04-24T14:33:12;9.98;;;5.05;;
26530;SDS011;14201;43.188;24.160;2023-04-24T14:35:42;9.10;;;4.65;;
26530;SDS011;14201;43.188;24.160;2023-04-24T14:38:08;5.88;;;4.95;;
26530;SDS011;14201;43.188;24.160;2023-04-24T14:40:34;7.93;;;5.45;;
26530;SDS011;14201;43.188;24.160;2023-04-24T14:43:00;10.02;;;5.68;;
26530;SDS011;14201;43.188;24.160;2023-04-24T14:45:26;6.07;;;4.93;;
